Time;durP1;ratioP1;P1;durP2;ratioP2;P2;SDS_P1;SDS_P2;PMS_P1;PMS_P2;Temp;Humidity;BMP_temperature;BMP_pressure;BME280_temperature;BME280_humidity;BME280_pressure;Samples;Min_cycle;Max_cycle;Signal;HPM_P1;HPM_P2
2023/11/29 00:02:29;;;;;;;;;;;;;;;-1.76;100.00;94739.94;10596076;27;2928;-67
2023/11/29 00:07:31;;;;;;;;;;;;;;;-1.74;100.00;94736.03;10595874;27;2948;-68
2023/11/29 00:12:34;;;;;;;;;;;;;;;-1.75;100.00;94734.44;10595863;27;2875;-68
2023/11/29 00:17:37;;;;;;;;;;;;;;;-2.00;100.00;94736.38;10596138;27;2869;-68
2023/11/29 00:22:41;;;;;;;;;;;;;;;-2.06;100.00;94738.06;10580931;27;2832;-69
2023/11/29 00:27:47;;;;;;;;;;;;;;;-2.03;100.00;94735.00;10594909;27;2937;-68
2023/11/29 00:32:50;;;;;;;;;;;;;;;-1.97;100.00;94728.06;10593622;27;2889;-68
2023/11/29 00:37:53;;;;;;;;;;;;;;;-2.03;100.00;94726.31;10592372;27;2958;-67
2023/11/29 00:42:57;;;;;;;;;;;;;;;-1.99;100.00;94738.78;10590070;27;3208;-68
2023/11/29 00:48:09;;;;;;;;;;;;;;;-2.09;100.00;94737.72;10587897;27;2832;-67
2023/11/29 00:53:13;;;;;;;;;;;;;;;-1.99;100.00;94738.78;10589080;27;2835;-67
2023/11/29 00:58:17;;;;;;;;;;;;;;;-1.91;100.00;94742.94;10584369;27;2855;-69
2023/11/29 01:03:20;;;;;;;;;;;;;;;-1.92;100.00;94749.25;10587667;27;3141;-72
2023/11/29 01:08:25;;;;;;;;;;;;;;;-1.83;100.00;94750.56;10584682;27;2938;-68
2023/11/29 01:13:28;;;;;;;;;;;;;;;-1.86;100.00;94751.00;10597696;27;3007;-69
2023/11/29 01:18:32;;;;;;;;;;;;;;;-1.78;100.00;94750.72;10573838;27;2847;-68
2023/11/29 01:23:35;;;;;;;;;;;;;;;-1.66;100.00;94756.00;10589602;27;2935;-68
2023/11/29 01:28:38;;;;;;;;;;;;;;;-1.61;100.00;94760.63;10590648;27;2842;-68
2023/11/29 01:33:41;;;;;;;;;;;;;;;-1.54;100.00;94763.97;10595953;27;2801;-68
2023/11/29 01:38:43;;;;;;;;;;;;;;;-1.59;100.00;94764.66;10591772;27;2883;-69
2023/11/29 01:43:46;;;;;;;;;;;;;;;-1.54;100.00;94751.59;10594256;27;4677;-68
2023/11/29 01:48:49;;;;;;;;;;;;;;;-1.56;100.00;94729.94;10589552;27;2820;-66
2023/11/29 01:53:52;;;;;;;;;;;;;;;-1.91;100.00;94727.97;10591827;27;3716;-67
2023/11/29 01:58:55;;;;;;;;;;;;;;;-1.84;100.00;94714.72;10594093;27;2908;-66
2023/11/29 02:03:58;;;;;;;;;;;;;;;-1.84;100.00;94719.97;10601251;27;2857;-66
2023/11/29 02:09:00;;;;;;;;;;;;;;;-1.78;100.00;94713.81;10591038;27;2855;-67
2023/11/29 02:14:03;;;;;;;;;;;;;;;-1.76;100.00;94711.75;10597229;27;2819;-69
2023/11/29 02:19:07;;;;;;;;;;;;;;;-1.71;100.00;94719.81;10573221;27;2922;-66
2023/11/29 02:24:12;;;;;;;;;;;;;;;-1.72;100.00;94717.38;10578016;27;2848;-67
2023/11/29 02:29:14;;;;;;;;;;;;;;;-1.65;100.00;94718.13;10598074;27;2825;-66
2023/11/29 02:34:17;;;;;;;;;;;;;;;-1.58;100.00;94725.94;10602529;27;2831;-69
2023/11/29 02:39:21;;;;;;;;;;;;;;;-1.57;100.00;94715.16;10575280;27;2936;-73
2023/11/29 02:44:23;;;;;;;;;;;;;;;-1.56;100.00;94715.97;10596363;27;4680;-70
2023/11/29 02:49:26;;;;;;;;;;;;;;;-1.48;100.00;94713.00;10580604;27;3049;-69
2023/11/29 02:54:29;;;;;;;;;;;;;;;-1.54;100.00;94704.16;10598257;27;2892;-67
2023/11/29 02:59:32;;;;;;;;;;;;;;;-1.57;100.00;94709.88;10597470;27;2815;-68
2023/11/29 03:04:35;;;;;;;;;;;;;;;-1.57;100.00;94703.81;10599108;27;2910;-67
2023/11/29 03:09:37;;;;;;;;;;;;;;;-1.64;100.00;94712.63;10591234;27;2983;-69
2023/11/29 03:14:42;;;;;;;;;;;;;;;-1.64;100.00;94712.63;10598860;27;2874;-70
2023/11/29 03:19:47;;;;;;;;;;;;;;;-1.66;100.00;94714.66;10598662;27;2940;-70
2023/11/29 03:24:52;;;;;;;;;;;;;;;-1.58;100.00;94715.41;10591113;27;2840;-66
2023/11/29 03:29:55;;;;;;;;;;;;;;;-1.51;100.00;94713.47;10594694;27;2909;-72
2023/11/29 03:34:57;;;;;;;;;;;;;;;-1.52;100.00;94714.50;10597551;27;2816;-71
2023/11/29 03:40:00;;;;;;;;;;;;;;;-1.36;100.00;94717.28;10596551;27;2814;-68
2023/11/29 03:45:04;;;;;;;;;;;;;;;-1.36;100.00;94711.22;10602128;27;2994;-67
2023/11/29 03:50:06;;;;;;;;;;;;;;;-1.33;100.00;94710.78;10598736;27;3112;-69
2023/11/29 03:55:09;;;;;;;;;;;;;;;-1.39;100.00;94716.94;10605556;27;2813;-68
2023/11/29 04:00:13;;;;;;;;;;;;;;;-1.33;100.00;94721.31;10575028;27;2903;-66
2023/11/29 04:05:16;;;;;;;;;;;;;;;-1.36;100.00;94711.22;10592463;27;2830;-67
2023/11/29 04:10:19;;;;;;;;;;;;;;;-1.31;100.00;94711.34;10600083;27;2803;-67
2023/11/29 04:15:22;;;;;;;;;;;;;;;-1.30;100.00;94709.50;10596873;27;2874;-69
2023/11/29 04:20:24;;;;;;;;;;;;;;;-1.32;100.00;94706.31;10590781;27;2922;-68
2023/11/29 04:25:28;;;;;;;;;;;;;;;-1.41;100.00;94708.44;10591928;27;2862;-68
2023/11/29 04:30:30;;;;;;;;;;;;;;;-1.45;100.00;94696.75;10599148;27;2799;-67
2023/11/29 04:35:33;;;;;;;;;;;;;;;-1.33;100.00;94699.44;10586142;27;2811;-67
2023/11/29 04:40:37;;;;;;;;;;;;;;;-1.34;100.00;94687.25;10591783;27;2839;-70
2023/11/29 04:45:41;;;;;;;;;;;;;;;-1.44;100.00;94691.25;10588191;27;2885;-67
2023/11/29 04:50:44;;;;;;;;;;;;;;;-1.52;100.00;94690.78;10591849;27;2815;-72
2023/11/29 04:55:48;;;;;;;;;;;;;;;-1.49;100.00;94698.22;10594739;27;2804;-68
2023/11/29 05:00:51;;;;;;;;;;;;;;;-1.49;100.00;94690.31;10586123;27;2832;-68
2023/11/29 05:05:53;;;;;;;;;;;;;;;-1.48;100.00;94684.00;10590150;27;2945;-69
2023/11/29 05:10:57;;;;;;;;;;;;;;;-1.46;100.00;94695.94;10592998;27;2881;-66
2023/11/29 05:16:00;;;;;;;;;;;;;;;-1.43;100.00;94700.75;10572863;27;2936;-68
2023/11/29 05:21:04;;;;;;;;;;;;;;;-1.38;100.00;94697.47;10585824;27;2950;-73
2023/11/29 05:26:09;;;;;;;;;;;;;;;-1.58;100.00;94703.00;10571202;27;3009;-69
2023/11/29 05:31:13;;;;;;;;;;;;;;;-1.81;100.00;94709.00;10579612;27;2955;-69
2023/11/29 05:36:18;;;;;;;;;;;;;;;-2.02;100.00;94712.09;10593080;27;2812;-70
2023/11/29 05:41:21;;;;;;;;;;;;;;;-2.12;100.00;94717.06;10587888;27;2815;-68
2023/11/29 05:46:23;;;;;;;;;;;;;;;-2.25;100.00;94712.75;10589877;27;4688;-68
2023/11/29 05:51:28;;;;;;;;;;;;;;;-2.29;100.00;94712.41;10589218;27;2906;-68
2023/11/29 05:56:31;;;;;;;;;;;;;;;-2.42;100.00;94723.06;10595784;27;2923;-68
2023/11/29 06:01:33;;;;;;;;;;;;;;;-2.37;100.00;94719.78;10590549;27;2895;-69
2023/11/29 06:06:38;;;;;;;;;;;;;;;-2.37;100.00;94725.03;10588701;27;2891;-67
2023/11/29 06:11:41;;;;;;;;;;;;;;;-2.46;100.00;94727.16;10588807;27;2804;-69
2023/11/29 06:16:44;;;;;;;;;;;;;;;-2.56;100.00;94729.47;10593731;27;2839;-70
2023/11/29 06:21:50;;;;;;;;;;;;;;;-2.60;100.00;94725.69;10575854;27;2902;-68
2023/11/29 06:26:52;;;;;;;;;;;;;;;-2.63;100.00;94726.13;10588964;27;3148;-69
2023/11/29 06:31:55;;;;;;;;;;;;;;;-2.62;100.00;94732.97;10594640;27;2814;-69
2023/11/29 06:36:58;;;;;;;;;;;;;;;-2.73;100.00;94735.31;10592189;27;3269;-69
2023/11/29 06:42:01;;;;;;;;;;;;;;;-2.76;100.00;94732.31;10588224;27;2814;-71
2023/11/29 06:47:04;;;;;;;;;;;;;;;-2.83;100.00;94736.81;10582722;27;4673;-71
2023/11/29 06:52:14;;;;;;;;;;;;;;;-2.85;100.00;94730.97;10592763;27;2904;-71
2023/11/29 06:57:17;;;;;;;;;;;;;;;-2.69;100.00;94743.56;10601368;27;2867;-70
2023/11/29 07:02:26;;;;;;;;;;;;;;;-2.63;100.00;94742.69;10602774;27;2852;-71
2023/11/29 07:07:31;;;;;;;;;;;;;;;-2.56;100.00;94753.16;10600125;27;2898;-70
2023/11/29 07:12:34;;;;;;;;;;;;;;;-2.46;100.00;94753.47;10600163;27;2888;-73
2023/11/29 07:17:37;;;;;;;;;;;;;;;-2.39;100.00;94756.84;10597820;27;2827;-71
2023/11/29 07:22:46;;;;;;;;;;;;;;;-2.23;100.00;94760.72;10595357;27;2936;-73
2023/11/29 07:27:56;;;;;;;;;;;;;;;-2.04;100.00;94762.34;10599807;27;2827;-72
2023/11/29 07:32:58;;;;;;;;;;;;;;;-1.97;100.00;94754.38;10598753;27;2871;-72
2023/11/29 07:38:19;;;;;;;;;;;;;;;-1.95;100.00;94750.50;10597306;27;2876;-71
2023/11/29 07:43:32;;;;;;;;;;;;;;;-1.95;100.00;94747.06;10601991;27;3052;-71
2023/11/29 07:48:35;;;;;;;;;;;;;;;-1.94;100.00;94751.28;10568864;27;2839;-70
2023/11/29 07:53:38;;;;;;;;;;;;;;;-1.82;100.00;94754.00;10570893;27;3039;-71
2023/11/29 07:58:40;;;;;;;;;;;;;;;-1.51;100.00;94760.91;10596262;27;2935;-69
2023/11/29 08:03:43;;;;;;;;;;;;;;;-1.13;100.00;94752.66;10587381;27;3178;-69
2023/11/29 08:08:46;;;;;;;;;;;;;;;-0.63;100.00;94762.84;10589285;27;3009;-69
2023/11/29 08:13:52;;;;;;;;;;;;;;;-0.48;100.00;94755.28;10586590;27;3498;-69
2023/11/29 08:18:55;;;;;;;;;;;;;;;-0.27;100.00;94745.97;10587491;27;2794;-70
2023/11/29 08:23:58;;;;;;;;;;;;;;;0.04;100.00;94747.41;10588459;27;2806;-69
2023/11/29 08:29:01;;;;;;;;;;;;;;;0.07;100.00;94746.16;10595945;27;2838;-69
2023/11/29 08:34:03;;;;;;;;;;;;;;;0.24;100.00;94739.09;10588102;27;2920;-69
2023/11/29 08:39:06;;;;;;;;;;;;;;;0.40;100.00;94741.00;10585537;27;3011;-70
2023/11/29 08:44:12;;;;;;;;;;;;;;;0.31;100.00;94749.53;10582139;27;4621;-70
2023/11/29 08:49:15;;;;;;;;;;;;;;;0.50;100.00;94743.81;10587465;27;2863;-72
2023/11/29 08:54:20;;;;;;;;;;;;;;;0.43;100.00;94750.28;10598853;27;2813;-72
2023/11/29 08:59:23;;;;;;;;;;;;;;;0.48;100.00;94756.50;10589245;27;2874;-70
2023/11/29 09:04:26;;;;;;;;;;;;;;;0.45;100.00;94756.97;10579707;27;2930;-70
2023/11/29 09:09:29;;;;;;;;;;;;;;;0.47;100.00;94746.94;10581530;27;2949;-70
2023/11/29 09:14:32;;;;;;;;;;;;;;;0.55;100.00;94753.69;10586491;27;3306;-70
2023/11/29 09:19:34;;;;;;;;;;;;;;;0.57;100.00;94754.25;10589753;27;2925;-70
2023/11/29 09:24:37;;;;;;;;;;;;;;;0.57;100.00;94761.38;10586875;27;2982;-71
2023/11/29 09:29:40;;;;;;;;;;;;;;;0.62;100.00;94753.56;10593103;27;2874;-73
2023/11/29 09:34:42;;;;;;;;;;;;;;;0.54;100.00;94749.47;10590073;27;2830;-73
2023/11/29 09:39:45;;;;;;;;;;;;;;;0.65;100.00;94750.47;10585301;27;3239;-76
2023/11/29 09:44:48;;;;;;;;;;;;;;;0.68;100.00;94744.69;10586316;27;3130;-72
2023/11/29 09:49:54;;;;;;;;;;;;;;;0.80;100.00;94737.50;10584814;27;2864;-72
2023/11/29 09:54:56;;;;;;;;;;;;;;;0.69;100.00;94722.47;10583256;27;2865;-73
2023/11/29 09:59:59;;;;;;;;;;;;;;;0.94;100.00;94730.84;10587250;27;2878;-71
2023/11/29 10:05:15;;;;;;;;;;;;;;;0.92;100.00;94725.00;10584670;27;2828;-73
2023/11/29 10:10:18;;;;;;;;;;;;;;;1.21;100.00;94723.13;10583998;27;2807;-72
2023/11/29 10:15:21;;;;;;;;;;;;;;;1.58;100.00;94704.06;10583839;27;3183;-72
2023/11/29 10:20:24;;;;;;;;;;;;;;;1.94;100.00;94688.66;10567984;27;2887;-71
2023/11/29 10:25:29;;;;;;;;;;;;;;;2.05;100.00;94683.22;10593529;27;2950;-72
2023/11/29 10:30:32;;;;;;;;;;;;;;;2.32;100.00;94687.78;10600601;27;2895;-74
2023/11/29 10:35:35;;;;;;;;;;;;;;;2.21;100.00;94681.53;10598427;27;3251;-73
2023/11/29 10:40:38;;;;;;;;;;;;;;;2.05;100.00;94671.84;10597885;27;2837;-73
2023/11/29 10:45:43;;;;;;;;;;;;;;;2.03;100.00;94658.00;10591984;27;4673;-70
2023/11/29 10:50:46;;;;;;;;;;;;;;;2.17;100.00;94649.44;10591314;27;2912;-75
2023/11/29 10:55:48;;;;;;;;;;;;;;;2.36;100.00;94646.47;10590180;27;2881;-71
2023/11/29 11:00:51;;;;;;;;;;;;;;;2.59;100.00;94648.00;10589819;27;2938;-71
2023/11/29 11:05:54;;;;;;;;;;;;;;;2.53;100.00;94649.78;10594842;27;3117;-70
2023/11/29 11:10:59;;;;;;;;;;;;;;;2.45;100.00;94650.25;10585215;27;2916;-72
2023/11/29 11:16:02;;;;;;;;;;;;;;;1.97;100.00;94659.78;10593168;27;2835;-70
2023/11/29 11:21:09;;;;;;;;;;;;;;;1.82;100.00;94656.97;10581534;27;2802;-71
2023/11/29 11:26:29;;;;;;;;;;;;;;;1.52;100.00;94654.69;10584473;27;2899;-70
2023/11/29 11:31:32;;;;;;;;;;;;;;;1.54;100.00;94650.00;10585121;27;2858;-72
2023/11/29 11:36:36;;;;;;;;;;;;;;;1.41;100.00;94651.13;10583972;27;2857;-69
2023/11/29 11:41:39;;;;;;;;;;;;;;;1.39;100.00;94647.09;10583829;27;2956;-69
2023/11/29 11:46:43;;;;;;;;;;;;;;;1.41;100.00;94639.75;10578772;27;2888;-69
2023/11/29 11:51:46;;;;;;;;;;;;;;;1.37;100.00;94628.81;10580989;27;3110;-72
2023/11/29 11:56:48;;;;;;;;;;;;;;;1.27;100.00;94620.72;10586441;27;2868;-69
2023/11/29 12:01:51;;;;;;;;;;;;;;;1.25;100.00;94620.19;10590357;27;2898;-70
2023/11/29 12:06:54;;;;;;;;;;;;;;;1.23;100.00;94616.97;10585966;27;2890;-69
2023/11/29 12:11:57;;;;;;;;;;;;;;;1.24;100.00;94602.69;10588861;27;2968;-70
2023/11/29 12:16:59;;;;;;;;;;;;;;;1.33;100.00;94601.22;10589744;27;2895;-70
2023/11/29 12:22:02;;;;;;;;;;;;;;;1.22;100.00;94604.81;10570123;27;2835;-72
2023/11/29 12:27:05;;;;;;;;;;;;;;;1.23;100.00;94587.88;10588331;27;2777;-72
2023/11/29 12:32:10;;;;;;;;;;;;;;;1.31;100.00;94598.03;10582550;27;2844;-69
2023/11/29 12:37:14;;;;;;;;;;;;;;;1.35;100.00;94589.34;10578654;27;2930;-70
2023/11/29 12:42:17;;;;;;;;;;;;;;;1.39;100.00;94580.91;10583111;27;2860;-69
2023/11/29 12:47:19;;;;;;;;;;;;;;;1.45;100.00;94577.28;10587734;27;2944;-68
2023/11/29 12:52:22;;;;;;;;;;;;;;;1.36;100.00;94584.88;10584527;27;3165;-74
2023/11/29 12:57:25;;;;;;;;;;;;;;;1.67;100.00;94575.47;10577860;27;3050;-74
2023/11/29 13:02:28;;;;;;;;;;;;;;;2.02;100.00;94563.63;10578453;27;2891;-75
2023/11/29 13:07:31;;;;;;;;;;;;;;;2.09;100.00;94575.63;10589452;27;2828;-74
2023/11/29 13:12:34;;;;;;;;;;;;;;;1.99;100.00;94566.81;10589684;27;2743;-74
2023/11/29 13:17:37;;;;;;;;;;;;;;;1.85;100.00;94571.69;10561864;27;2904;-73
2023/11/29 13:22:40;;;;;;;;;;;;;;;1.70;100.00;94559.06;10585900;27;2871;-74
2023/11/29 13:27:43;;;;;;;;;;;;;;;1.55;100.00;94564.19;10582941;27;3135;-74
2023/11/29 13:32:46;;;;;;;;;;;;;;;1.52;100.00;94554.06;10583617;27;2798;-74
2023/11/29 13:37:49;;;;;;;;;;;;;;;1.45;100.00;94566.69;10565051;27;2853;-72
2023/11/29 13:42:52;;;;;;;;;;;;;;;1.45;100.00;94564.84;10581947;27;2861;-74
2023/11/29 13:47:55;;;;;;;;;;;;;;;1.45;100.00;94562.19;10580448;27;4629;-77
2023/11/29 13:52:58;;;;;;;;;;;;;;;1.49;100.00;94562.50;10592312;27;2846;-75
2023/11/29 13:58:00;;;;;;;;;;;;;;;1.37;100.00;94569.78;10596415;27;2887;-74
2023/11/29 14:03:06;;;;;;;;;;;;;;;1.34;100.00;94560.50;10578240;27;2789;-74
2023/11/29 14:08:09;;;;;;;;;;;;;;;1.20;100.00;94569.81;10595802;27;2937;-73
2023/11/29 14:13:14;;;;;;;;;;;;;;;1.11;100.00;94579.22;10574084;27;2966;-72
2023/11/29 14:18:17;;;;;;;;;;;;;;;0.96;100.00;94579.81;10595881;27;2810;-71
2023/11/29 14:23:22;;;;;;;;;;;;;;;0.83;100.00;94578.31;10593601;27;2822;-75
2023/11/29 14:28:33;;;;;;;;;;;;;;;0.78;100.00;94578.22;10597249;27;3126;-73
2023/11/29 14:33:36;;;;;;;;;;;;;;;0.68;100.00;94578.84;10593444;27;2831;-75
2023/11/29 14:38:40;;;;;;;;;;;;;;;0.69;100.00;94587.59;10594035;27;2886;-73
2023/11/29 14:43:43;;;;;;;;;;;;;;;0.69;100.00;94579.66;10576001;27;4697;-74
2023/11/29 14:48:51;;;;;;;;;;;;;;;0.75;100.00;94578.69;10596764;27;2862;-73
2023/11/29 14:53:55;;;;;;;;;;;;;;;0.79;100.00;94580.63;10593811;27;2915;-73
2023/11/29 14:58:58;;;;;;;;;;;;;;;0.73;100.00;94576.28;10591721;27;2929;-75
2023/11/29 15:04:01;;;;;;;;;;;;;;;0.67;100.00;94574.59;10590133;27;2903;-74
2023/11/29 15:09:04;;;;;;;;;;;;;;;0.59;100.00;94574.22;10596341;27;2915;-74
2023/11/29 15:14:07;;;;;;;;;;;;;;;0.50;100.00;94573.81;10601262;27;2965;-74
2023/11/29 15:19:10;;;;;;;;;;;;;;;0.42;100.00;94575.00;10595776;27;2909;-75
2023/11/29 15:24:13;;;;;;;;;;;;;;;0.35;100.00;94569.06;10589987;27;2847;-74
2023/11/29 15:29:16;;;;;;;;;;;;;;;0.26;100.00;94570.53;10590698;27;2912;-73
2023/11/29 15:34:18;;;;;;;;;;;;;;;0.27;100.00;94569.47;10593057;27;3159;-74
2023/11/29 15:39:21;;;;;;;;;;;;;;;0.30;100.00;94570.81;10588145;27;2840;-75
2023/11/29 15:44:24;;;;;;;;;;;;;;;0.29;100.00;94569.22;10597235;27;4731;-72
2023/11/29 15:49:27;;;;;;;;;;;;;;;0.26;100.00;94568.69;10591509;27;2934;-73
2023/11/29 15:54:31;;;;;;;;;;;;;;;0.23;100.00;94560.41;10588148;27;2920;-76
2023/11/29 15:59:34;;;;;;;;;;;;;;;0.19;100.00;94553.97;10591968;27;2937;-75
2023/11/29 16:04:37;;;;;;;;;;;;;;;0.13;100.00;94566.34;10590630;27;2867;-77
2023/11/29 16:09:40;;;;;;;;;;;;;;;0.04;100.00;94569.59;10576614;27;2811;-75
2023/11/29 16:14:44;;;;;;;;;;;;;;;-0.09;100.00;94558.28;10592370;27;2800;-74
2023/11/29 16:19:46;;;;;;;;;;;;;;;-0.19;100.00;94558.09;10582392;27;2940;-74
2023/11/29 16:24:54;;;;;;;;;;;;;;;-0.31;100.00;94552.88;10579349;27;3217;-71
2023/11/29 16:29:56;;;;;;;;;;;;;;;-0.39;100.00;94552.41;10580103;27;3195;-71
2023/11/29 16:35:01;;;;;;;;;;;;;;;-0.47;100.00;94545.69;10569623;27;2858;-71
2023/11/29 16:40:04;;;;;;;;;;;;;;;-0.53;100.00;94553.72;10574811;27;2853;-70
2023/11/29 16:45:07;;;;;;;;;;;;;;;-0.59;100.00;94553.63;10575294;27;4623;-69
2023/11/29 16:50:10;;;;;;;;;;;;;;;-0.60;100.00;94556.50;10582059;27;3129;-70
2023/11/29 16:55:13;;;;;;;;;;;;;;;-0.68;100.00;94554.25;10581833;27;2882;-69
2023/11/29 17:00:15;;;;;;;;;;;;;;;-0.69;100.00;94556.06;10578295;27;2879;-74
2023/11/29 17:05:18;;;;;;;;;;;;;;;-0.63;100.00;94551.72;10573858;27;2839;-69
2023/11/29 17:10:21;;;;;;;;;;;;;;;-0.57;100.00;94559.50;10574391;27;2953;-69
2023/11/29 17:15:24;;;;;;;;;;;;;;;-0.48;100.00;94554.63;10577329;27;3168;-71
2023/11/29 17:20:27;;;;;;;;;;;;;;;-0.46;100.00;94557.03;10561765;27;2990;-72
2023/11/29 17:25:30;;;;;;;;;;;;;;;-0.41;100.00;94554.50;10577470;27;3282;-71
2023/11/29 17:30:34;;;;;;;;;;;;;;;-0.54;100.00;94563.50;10581154;27;2866;-70
2023/11/29 17:35:37;;;;;;;;;;;;;;;-0.61;100.00;94565.47;10580198;27;2922;-72
2023/11/29 17:40:40;;;;;;;;;;;;;;;-0.58;100.00;94568.41;10578561;27;2885;-74
2023/11/29 17:45:43;;;;;;;;;;;;;;;-0.57;100.00;94577.97;10569775;27;4575;-68
2023/11/29 17:50:47;;;;;;;;;;;;;;;-0.53;100.00;94577.47;10580479;27;3029;-68
2023/11/29 17:56:01;;;;;;;;;;;;;;;-0.56;100.00;94579.56;10581257;27;2885;-74
2023/11/29 18:01:04;;;;;;;;;;;;;;;-0.57;100.00;94577.16;10584971;27;2938;-68
2023/11/29 18:06:06;;;;;;;;;;;;;;;-0.62;100.00;94574.41;10564602;27;2883;-67
2023/11/29 18:11:09;;;;;;;;;;;;;;;-0.69;100.00;94579.03;10583029;27;3156;-68
2023/11/29 18:16:13;;;;;;;;;;;;;;;-0.71;100.00;94581.06;10565624;27;2981;-69
2023/11/29 18:21:16;;;;;;;;;;;;;;;-0.73;100.00;94570.75;10582721;27;2831;-70
2023/11/29 18:26:19;;;;;;;;;;;;;;;-0.66;100.00;94579.34;10585452;27;2775;-71
2023/11/29 18:31:22;;;;;;;;;;;;;;;-0.63;100.00;94570.19;10586671;27;2866;-71
2023/11/29 18:36:24;;;;;;;;;;;;;;;-0.60;100.00;94573.13;10586496;27;2858;-69
2023/11/29 18:41:27;;;;;;;;;;;;;;;-0.54;100.00;94579.31;10581312;27;3167;-68
2023/11/29 18:46:30;;;;;;;;;;;;;;;-0.52;100.00;94579.09;10595887;27;2881;-76
2023/11/29 18:51:34;;;;;;;;;;;;;;;-0.46;100.00;94573.66;10590073;27;2804;-68
2023/11/29 18:56:39;;;;;;;;;;;;;;;-0.42;100.00;94574.03;10606645;27;2811;-68
2023/11/29 19:01:41;;;;;;;;;;;;;;;-0.43;100.00;94573.22;10608330;27;2268;-68
2023/11/29 19:06:44;;;;;;;;;;;;;;;-0.46;100.00;94572.88;10600284;27;1978;-68
2023/11/29 19:11:49;;;;;;;;;;;;;;;-0.38;100.00;94575.97;10611916;27;2188;-69
2023/11/29 19:16:54;;;;;;;;;;;;;;;-0.37;100.00;94563.56;10594065;27;1565;-68
2023/11/29 19:21:59;;;;;;;;;;;;;;;-0.42;100.00;94571.38;10612373;27;1601;-68
2023/11/29 19:27:02;;;;;;;;;;;;;;;-0.41;100.00;94572.97;10613301;27;1913;-68
2023/11/29 19:32:07;;;;;;;;;;;;;;;-0.35;100.00;94585.25;10611980;27;1511;-68
2023/11/29 19:37:10;;;;;;;;;;;;;;;-0.30;100.00;94582.72;10608879;27;1598;-69
2023/11/29 19:42:15;;;;;;;;;;;;;;;-0.26;100.00;94578.53;10603412;27;1552;-73
2023/11/29 19:47:17;;;;;;;;;;;;;;;-0.27;100.00;94574.31;10607034;27;4831;-72
2023/11/29 19:52:25;;;;;;;;;;;;;;;-0.13;100.00;94578.25;10610942;27;2214;-69
2023/11/29 19:57:28;;;;;;;;;;;;;;;-0.04;100.00;94563.66;10608827;27;2259;-72
2023/11/29 20:02:31;;;;;;;;;;;;;;;0.00;100.00;94566.63;10609106;27;1662;-71
2023/11/29 20:07:34;;;;;;;;;;;;;;;0.01;100.00;94567.44;10606565;27;1967;-69
2023/11/29 20:12:36;;;;;;;;;;;;;;;-0.03;100.00;94569.72;10609659;27;3385;-70
2023/11/29 20:17:39;;;;;;;;;;;;;;;-0.02;100.00;94564.19;10609015;27;2065;-70
2023/11/29 20:22:42;;;;;;;;;;;;;;;-0.01;100.00;94557.88;10610084;27;1510;-69
2023/11/29 20:27:45;;;;;;;;;;;;;;;-0.06;100.00;94543.81;10609615;27;1906;-70
2023/11/29 20:32:50;;;;;;;;;;;;;;;-0.06;100.00;94536.69;10615281;27;1471;-69
2023/11/29 20:37:53;;;;;;;;;;;;;;;-0.10;100.00;94537.38;10608688;27;1645;-70
2023/11/29 20:42:55;;;;;;;;;;;;;;;-0.08;100.00;94530.81;10606129;27;2301;-70
2023/11/29 20:47:58;;;;;;;;;;;;;;;-0.07;100.00;94527.13;10610597;27;5058;-70
2023/11/29 20:53:01;;;;;;;;;;;;;;;-0.06;100.00;94531.41;10609171;27;1915;-69
2023/11/29 20:58:19;;;;;;;;;;;;;;;-0.08;100.00;94520.25;10592978;27;1600;-70
2023/11/29 21:03:24;;;;;;;;;;;;;;;-0.11;100.00;94506.72;10606069;27;1610;-74
2023/11/29 21:08:27;;;;;;;;;;;;;;;-0.09;100.00;94515.22;10607905;27;1898;-71
2023/11/29 21:13:29;;;;;;;;;;;;;;;0.05;100.00;94510.41;10608074;27;1976;-69
2023/11/29 21:18:34;;;;;;;;;;;;;;;0.03;100.00;94512.50;10609339;27;1514;-69
2023/11/29 21:23:37;;;;;;;;;;;;;;;-0.03;100.00;94509.78;10607292;27;2213;-69
2023/11/29 21:28:40;;;;;;;;;;;;;;;-0.16;100.00;94507.44;10602851;27;1922;-69
2023/11/29 21:33:43;;;;;;;;;;;;;;;-0.21;100.00;94517.91;10606539;27;1649;-68
2023/11/29 21:38:46;;;;;;;;;;;;;;;-0.27;100.00;94503.00;10609024;27;1615;-69
2023/11/29 21:43:50;;;;;;;;;;;;;;;-0.41;100.00;94497.22;10601411;27;4756;-68
2023/11/29 21:48:54;;;;;;;;;;;;;;;-0.41;100.00;94501.69;10605787;27;1469;-70
2023/11/29 21:53:57;;;;;;;;;;;;;;;-0.38;100.00;94501.22;10608125;27;1599;-74
2023/11/29 21:59:01;;;;;;;;;;;;;;;-0.34;100.00;94489.16;10588231;27;1676;-69
2023/11/29 22:04:04;;;;;;;;;;;;;;;-0.32;100.00;94473.84;10606780;27;1968;-69
2023/11/29 22:09:10;;;;;;;;;;;;;;;-0.25;100.00;94469.25;10605831;28;2436;-70
2023/11/29 22:14:13;;;;;;;;;;;;;;;-0.20;100.00;94456.13;10614064;27;1551;-68
2023/11/29 22:19:16;;;;;;;;;;;;;;;-0.14;100.00;94455.16;10591118;27;1631;-69
2023/11/29 22:24:19;;;;;;;;;;;;;;;-0.16;100.00;94453.81;10598664;27;1981;-69
2023/11/29 22:29:22;;;;;;;;;;;;;;;-0.11;100.00;94456.53;10615007;27;1506;-70
2023/11/29 22:34:28;;;;;;;;;;;;;;;-0.08;100.00;94459.50;10615430;27;1642;-68
2023/11/29 22:39:31;;;;;;;;;;;;;;;-0.07;100.00;94447.88;10615882;27;1486;-68
2023/11/29 22:44:37;;;;;;;;;;;;;;;-0.05;100.00;94439.75;10612069;27;1996;-69
2023/11/29 22:49:41;;;;;;;;;;;;;;;0.01;100.00;94436.13;10604997;27;2907;-69
2023/11/29 22:54:44;;;;;;;;;;;;;;;0.05;100.00;94436.44;10597207;27;2858;-74
2023/11/29 22:59:48;;;;;;;;;;;;;;;0.04;100.00;94424.28;10591795;27;2870;-79
2023/11/29 23:04:51;;;;;;;;;;;;;;;0.04;100.00;94424.28;10590022;27;2960;-69
2023/11/29 23:09:54;;;;;;;;;;;;;;;0.03;100.00;94433.25;10591397;27;2815;-70
2023/11/29 23:14:56;;;;;;;;;;;;;;;0.08;100.00;94430.69;10596608;27;2823;-69
2023/11/29 23:20:00;;;;;;;;;;;;;;;0.09;100.00;94437.56;10594426;27;3082;-68
2023/11/29 23:25:02;;;;;;;;;;;;;;;0.02;100.00;94432.44;10595384;27;2847;-71
2023/11/29 23:30:06;;;;;;;;;;;;;;;0.06;100.00;94414.25;10592054;27;2815;-69
2023/11/29 23:35:11;;;;;;;;;;;;;;;0.04;100.00;94413.72;10592114;27;2892;-69
2023/11/29 23:40:13;;;;;;;;;;;;;;;0.03;100.00;94412.09;10591935;27;2894;-69
2023/11/29 23:45:16;;;;;;;;;;;;;;;0.07;100.00;94418.53;10591585;27;4737;-69
2023/11/29 23:50:20;;;;;;;;;;;;;;;0.03;100.00;94406.81;10573225;27;2878;-69
2023/11/29 23:55:23;;;;;;;;;;;;;;;0.05;100.00;94415.31;10572146;27;3081;-71
